Time;durP1;ratioP1;P1;durP2;ratioP2;P2;SDS_P1;SDS_P2;PMS_P1;PMS_P2;Temp;Humidity;BMP_temperature;BMP_pressure;BME280_temperature;BME280_humidity;BME280_pressure;Samples;Min_cycle;Max_cycle;Signal;HPM_P1;HPM_P2
2021/06/17 00:00:34;;;;;;;5.18;4.68;;;;;;;13.91;87.63;92938.53;2107342;28;20020;-90
2021/06/17 00:01:35;;;;;;;5.47;4.78;;;;;;;13.91;87.46;92931.22;2107474;28;20028;-92
2021/06/17 00:02:36;;;;;;;6.75;4.75;;;;;;;13.80;87.78;92934.31;2100806;28;20029;-91
2021/06/17 00:03:36;;;;;;;6.28;4.15;;;;;;;13.83;87.38;92932.72;2104952;28;20031;-90
2021/06/17 00:04:37;;;;;;;5.28;4.78;;;;;;;13.76;88.10;92944.44;2090899;28;20029;-91
2021/06/17 00:05:42;;;;;;;5.43;4.55;;;;;;;13.85;87.55;92933.75;2103660;28;20107;-91
2021/06/17 00:06:43;;;;;;;4.65;4.25;;;;;;;13.78;88.23;92933.25;2106426;28;20023;-91
2021/06/17 00:07:45;;;;;;;7.15;4.47;;;;;;;13.78;88.01;92933.25;2099083;28;20484;-91
2021/06/17 00:08:46;;;;;;;5.72;4.30;;;;;;;13.77;88.21;92939.81;2100069;28;20421;-90
2021/06/17 00:09:47;;;;;;;6.30;4.53;;;;;;;13.73;88.03;92934.56;2099230;28;20063;-90
2021/06/17 00:10:49;;;;;;;6.20;5.10;;;;;;;13.75;88.28;92934.16;2099184;28;20024;-91
2021/06/17 00:11:50;;;;;;;4.88;4.35;;;;;;;13.71;88.34;92936.97;2099480;28;20493;-91
2021/06/17 00:12:53;;;;;;;6.90;4.60;;;;;;;13.74;87.72;92941.47;2095336;28;20024;-91
2021/06/17 00:13:54;;;;;;;10.52;5.00;;;;;;;13.75;87.85;92928.78;2099634;28;20116;-91
2021/06/17 00:14:55;;;;;;;6.40;4.45;;;;;;;13.71;88.14;92936.22;2095790;28;20019;-92
2021/06/17 00:15:58;;;;;;;8.55;4.80;;;;;;;13.68;88.22;92935.16;2102503;28;20028;-92
2021/06/17 00:17:00;;;;;;;5.95;4.45;;;;;;;13.68;88.32;92923.66;2099554;28;20024;-92
2021/06/17 00:18:02;;;;;;;5.72;4.47;;;;;;;13.72;88.01;92927.72;2099509;28;20583;-91
2021/06/17 00:19:03;;;;;;;6.70;4.65;;;;;;;13.68;88.54;92927.09;2112880;27;20088;-90
2021/06/17 00:20:05;;;;;;;8.88;4.45;;;;;;;13.71;88.07;92925.47;2101416;28;20082;-91
2021/06/17 00:21:06;;;;;;;6.95;5.55;;;;;;;13.57;87.47;92932.84;2099277;28;20355;-91
2021/06/17 00:22:06;;;;;;;5.47;4.28;;;;;;;13.61;87.92;92927.38;2090797;28;20067;-90
2021/06/17 00:23:08;;;;;;;6.25;4.20;;;;;;;13.59;88.26;92933.16;2100634;28;20078;-90
2021/06/17 00:24:09;;;;;;;5.15;4.60;;;;;;;13.58;87.82;92937.03;2106491;28;20118;-92
2021/06/17 00:25:10;;;;;;;5.20;4.70;;;;;;;13.57;88.53;92940.16;2112120;28;20019;-90
2021/06/17 00:26:11;;;;;;;8.63;4.63;;;;;;;13.55;88.18;92935.22;2102360;28;20469;-90
2021/06/17 00:27:12;;;;;;;5.35;4.82;;;;;;;13.56;88.57;92936.75;2090723;28;20028;-90
2021/06/17 00:28:13;;;;;;;5.18;4.68;;;;;;;13.50;88.28;92930.41;2099069;28;20027;-92
2021/06/17 00:29:13;;;;;;;5.50;4.50;;;;;;;13.51;88.32;92931.16;2099121;28;20032;-91
2021/06/17 00:30:15;;;;;;;7.32;4.47;;;;;;;13.55;88.13;92931.78;2106506;28;20031;-91
2021/06/17 00:31:16;;;;;;;8.05;4.75;;;;;;;13.47;88.51;92931.28;2107470;28;20056;-91
2021/06/17 00:32:17;;;;;;;5.93;4.80;;;;;;;13.42;88.38;92926.50;2102280;28;20039;-90
2021/06/17 00:33:18;;;;;;;6.35;4.68;;;;;;;13.47;88.38;92927.84;2098852;28;20025;-91
2021/06/17 00:34:19;;;;;;;5.05;4.53;;;;;;;13.39;88.17;92926.59;2103164;28;20115;-90
2021/06/17 00:35:20;;;;;;;4.97;4.35;;;;;;;13.43;87.86;92932.59;2090841;28;20480;-90
2021/06/17 00:36:21;;;;;;;4.72;4.32;;;;;;;13.42;88.11;92931.84;2099001;28;20032;-91
2021/06/17 00:37:22;;;;;;;5.35;4.22;;;;;;;13.37;88.00;92929.75;2097964;28;20369;-92
2021/06/17 00:38:22;;;;;;;4.85;4.40;;;;;;;13.38;88.10;92931.22;2107176;28;20020;-90
2021/06/17 00:39:23;;;;;;;4.57;4.15;;;;;;;13.32;88.26;92923.00;2099791;28;20063;-92
2021/06/17 00:40:24;;;;;;;4.80;4.40;;;;;;;13.34;88.43;92922.56;2091188;28;20025;-90
2021/06/17 00:41:25;;;;;;;5.45;4.30;;;;;;;13.28;88.50;92916.25;2107199;28;20020;-90
2021/06/17 00:42:27;;;;;;;4.75;4.35;;;;;;;13.25;88.56;92919.81;2107257;28;20020;-92
2021/06/17 00:43:27;;;;;;;5.68;4.10;;;;;;;13.25;88.42;92920.56;2095429;28;20028;-90
2021/06/17 00:44:28;;;;;;;5.07;4.55;;;;;;;13.24;88.48;92918.31;2098672;28;20107;-91
2021/06/17 00:45:32;;;;;;;4.53;4.13;;;;;;;13.23;88.82;92919.50;2090878;28;20086;-91
2021/06/17 00:46:34;;;;;;;4.50;4.10;;;;;;;13.21;88.70;92919.91;2107737;28;20020;-90
2021/06/17 00:47:35;;;;;;;7.03;4.60;;;;;;;13.19;89.34;92916.91;2099105;28;20107;-91
2021/06/17 00:48:35;;;;;;;4.88;4.38;;;;;;;13.18;88.49;92917.38;2098831;28;20020;-90
2021/06/17 00:49:36;;;;;;;6.25;3.90;;;;;;;13.19;89.17;92908.13;2107152;28;20023;-90
2021/06/17 00:50:44;;;;;;;7.32;4.10;;;;;;;13.15;88.65;92915.53;2082446;28;20025;-90
2021/06/17 00:51:44;;;;;;;5.85;4.30;;;;;;;13.18;89.01;92914.69;2094374;28;20021;-90
2021/06/17 00:52:45;;;;;;;5.63;4.35;;;;;;;13.17;88.97;92915.84;2090518;28;20432;-90
2021/06/17 00:53:46;;;;;;;5.13;4.20;;;;;;;13.19;89.75;92918.84;2090613;28;20121;-91
2021/06/17 00:54:47;;;;;;;5.10;4.47;;;;;;;13.16;89.21;92909.72;2096717;28;20074;-90
2021/06/17 00:55:48;;;;;;;5.38;4.38;;;;;;;13.06;89.66;92918.91;2106950;28;20502;-91
2021/06/17 00:56:48;;;;;;;4.38;4.00;;;;;;;13.07;89.29;92910.41;2098711;28;20024;-92
2021/06/17 00:57:49;;;;;;;6.93;4.28;;;;;;;13.09;89.31;92915.38;2103362;28;20021;-90
2021/06/17 00:58:52;;;;;;;6.55;4.45;;;;;;;13.08;88.98;92909.25;2090314;28;20035;-90
2021/06/17 00:59:52;;;;;;;4.63;4.22;;;;;;;13.04;89.38;92908.63;2090575;28;20477;-91
2021/06/17 01:00:54;;;;;;;6.65;4.00;;;;;;;12.99;90.07;92906.47;2087855;28;20020;-90
2021/06/17 01:01:56;;;;;;;7.43;4.22;;;;;;;12.99;90.00;92909.16;2099340;28;20025;-89
2021/06/17 01:02:57;;;;;;;5.43;4.32;;;;;;;13.00;89.87;92905.31;2115531;28;20043;-90
2021/06/17 01:03:57;;;;;;;5.80;4.53;;;;;;;12.94;89.94;92898.97;2098626;28;20027;-90
2021/06/17 01:04:58;;;;;;;5.50;4.03;;;;;;;12.96;90.00;92906.63;2103940;28;20020;-91
2021/06/17 01:05:59;;;;;;;5.93;4.75;;;;;;;12.94;90.34;92909.72;2102071;28;20059;-90
2021/06/17 01:07:00;;;;;;;4.80;4.18;;;;;;;12.95;89.58;92907.78;2110590;28;20039;-90
2021/06/17 01:08:03;;;;;;;6.78;4.47;;;;;;;12.95;89.29;92900.50;2098373;28;20032;-89
2021/06/17 01:09:11;;;;;;;4.97;4.15;;;;;;;13.00;89.21;92905.31;2103153;28;20392;-90
2021/06/17 01:10:53;;;;;;;7.45;4.53;;;;;;;13.03;89.63;92904.41;2107941;28;20559;-91
2021/06/17 01:12:11;;;;;;;6.53;4.32;;;;;;;12.98;89.37;92899.63;2077026;28;20037;-91
2021/06/17 01:13:27;;;;;;;4.53;4.07;;;;;;;12.89;89.15;92890.75;2103369;28;20794;-91
2021/06/17 01:14:33;;;;;;;4.40;4.00;;;;;;;12.93;89.41;92897.50;2098171;28;20058;-91
2021/06/17 01:15:39;;;;;;;8.05;4.20;;;;;;;12.92;90.01;92898.69;2100019;28;20027;-91
2021/06/17 01:16:51;;;;;;;6.45;4.13;;;;;;;12.82;90.04;92897.13;2098438;28;20021;-90
2021/06/17 01:18:01;;;;;;;5.10;4.25;;;;;;;12.87;89.84;92898.50;2113596;28;20389;-91
2021/06/17 01:19:08;;;;;;;;;;;;;;;12.83;90.28;92901.28;2109339;28;20031;-88
2021/06/17 01:20:30;;;;;;;5.45;4.50;;;;;;;12.85;90.51;92898.91;2102977;28;19908;-89
2021/06/17 01:21:41;;;;;;;4.45;4.13;;;;;;;12.84;90.42;92892.06;2098363;28;20111;-90
2021/06/17 01:23:01;;;;;;;5.88;4.65;;;;;;;12.74;90.97;92887.81;2095350;28;20028;-90
2021/06/17 01:24:29;;;;;;;7.25;3.97;;;;;;;12.77;90.36;92885.00;2101193;28;20225;-89
2021/06/17 01:25:45;;;;;;;6.30;4.05;;;;;;;12.87;90.40;92893.88;2103003;28;20107;-90
2021/06/17 01:27:10;;;;;;;4.00;3.70;;;;;;;12.73;90.58;92889.75;2099169;28;20040;-90
2021/06/17 01:28:12;;;;;;;4.85;4.32;;;;;;;12.77;91.00;92887.66;2093521;28;20461;-90
2021/06/17 01:29:20;;;;;;;7.88;4.68;;;;;;;12.75;91.01;92886.63;2106701;28;20111;-90
2021/06/17 01:30:22;;;;;;;7.13;4.75;;;;;;;12.75;90.78;92894.66;2106079;28;20097;-90
2021/06/17 01:31:27;;;;;;;11.13;4.97;;;;;;;12.79;90.58;92884.56;2097079;28;20048;-90
2021/06/17 01:32:28;;;;;;;6.72;4.55;;;;;;;12.72;90.60;92882.88;2113385;28;20055;-90
2021/06/17 01:33:47;;;;;;;5.53;4.18;;;;;;;12.77;90.78;92889.59;2106765;28;20024;-89
2021/06/17 01:34:51;;;;;;;4.80;4.32;;;;;;;12.77;91.05;92886.94;2100857;28;20024;-91
2021/06/17 01:35:58;;;;;;;5.25;4.75;;;;;;;12.73;90.77;92876.34;2099291;28;20020;-90
2021/06/17 01:37:06;;;;;;;6.97;4.38;;;;;;;12.72;91.23;92882.13;2095597;28;20032;-90
2021/06/17 01:38:08;;;;;;;6.43;3.95;;;;;;;12.66;90.99;92878.50;2099950;28;20071;-90
2021/06/17 01:39:11;;;;;;;8.70;4.72;;;;;;;12.58;90.87;92880.66;2098621;28;20457;-91
2021/06/17 01:40:13;;;;;;;4.53;4.13;;;;;;;12.63;91.31;92879.38;2106959;27;20058;-90
2021/06/17 01:41:15;;;;;;;5.63;4.28;;;;;;;12.64;90.84;92875.50;2115204;28;20030;-90
2021/06/17 01:42:16;;;;;;;6.93;4.55;;;;;;;12.60;91.08;92881.75;2117139;27;20030;-90
2021/06/17 01:43:19;;;;;;;5.03;4.10;;;;;;;12.60;91.01;92883.69;2108712;28;20407;-91
2021/06/17 01:44:22;;;;;;;4.55;4.15;;;;;;;12.55;91.59;92878.84;2082188;28;20048;-91
2021/06/17 01:45:26;;;;;;;5.35;4.43;;;;;;;12.60;91.03;92878.31;2097608;28;20028;-90
2021/06/17 01:46:29;;;;;;;5.50;4.35;;;;;;;12.55;91.68;92878.84;2098891;28;20111;-89
2021/06/17 01:47:30;;;;;;;4.90;4.30;;;;;;;12.56;91.70;92875.75;2098419;28;20079;-90
2021/06/17 01:48:31;;;;;;;5.38;4.50;;;;;;;12.62;91.06;92881.31;2098111;28;20024;-90
2021/06/17 01:49:36;;;;;;;5.50;4.03;;;;;;;12.58;91.31;92884.09;2098401;28;20024;-93
2021/06/17 01:50:37;;;;;;;6.53;4.30;;;;;;;12.60;91.88;92879.06;2091004;28;20028;-91
2021/06/17 01:51:38;;;;;;;5.95;4.28;;;;;;;12.58;91.25;92875.31;2097327;28;20054;-90
2021/06/17 01:52:40;;;;;;;5.18;3.88;;;;;;;12.58;91.54;92881.41;2106809;28;20515;-92
2021/06/17 01:53:41;;;;;;;5.25;4.32;;;;;;;12.55;92.56;92879.59;2106950;28;20028;-92
2021/06/17 01:54:44;;;;;;;4.22;3.78;;;;;;;12.50;91.77;92880.16;2106587;28;20089;-90
2021/06/17 01:55:45;;;;;;;5.40;4.20;;;;;;;12.45;92.26;92880.69;2115048;28;20027;-90
2021/06/17 01:56:48;;;;;;;4.60;4.13;;;;;;;12.52;92.19;92877.78;2106477;28;20028;-90
2021/06/17 01:57:50;;;;;;;5.20;3.85;;;;;;;12.52;92.85;92874.38;2095984;28;20059;-90
2021/06/17 01:58:54;;;;;;;5.97;4.03;;;;;;;12.56;91.61;92875.75;2101287;28;20105;-90
2021/06/17 01:59:55;;;;;;;4.30;3.90;;;;;;;12.46;91.00;92870.72;2090279;28;20056;-91
2021/06/17 02:00:57;;;;;;;4.50;4.10;;;;;;;12.51;91.75;92886.25;2081974;28;20196;-90
2021/06/17 02:02:00;;;;;;;4.72;4.07;;;;;;;12.52;91.67;92880.47;2090185;28;20040;-91
2021/06/17 02:03:05;;;;;;;4.85;4.13;;;;;;;12.47;91.64;92888.31;2105934;28;20028;-90
2021/06/17 02:04:06;;;;;;;6.68;3.80;;;;;;;12.44;92.67;92884.56;2085935;28;20036;-90
2021/06/17 02:05:09;;;;;;;4.47;3.95;;;;;;;12.41;92.19;92890.78;2081665;28;20033;-89
2021/06/17 02:06:14;;;;;;;4.43;3.92;;;;;;;12.43;92.10;92885.75;2093145;28;20425;-90
2021/06/17 02:07:16;;;;;;;4.13;3.65;;;;;;;12.40;92.28;92886.63;2091203;28;20040;-90
2021/06/17 02:08:20;;;;;;;5.45;3.83;;;;;;;12.39;92.38;92893.16;2098228;28;20032;-91
2021/06/17 02:09:23;;;;;;;4.22;3.83;;;;;;;12.38;91.83;92896.25;2090327;28;20489;-90
2021/06/17 02:10:27;;;;;;;5.63;4.15;;;;;;;12.29;92.04;92899.59;2082904;28;20099;-90
2021/06/17 02:11:30;;;;;;;7.35;4.13;;;;;;;12.34;92.22;92896.38;2093364;28;20033;-90
2021/06/17 02:12:31;;;;;;;8.68;4.10;;;;;;;12.29;91.82;92905.72;2090057;28;20063;-90
2021/06/17 02:13:33;;;;;;;4.75;4.20;;;;;;;12.35;93.25;92892.53;2091894;28;20045;-90
2021/06/17 02:14:35;;;;;;;4.57;4.05;;;;;;;12.39;92.22;92895.09;2098180;28;20058;-91
2021/06/17 02:15:36;;;;;;;4.45;3.78;;;;;;;12.35;92.58;92901.31;2093298;28;20025;-91
2021/06/17 02:16:41;;;;;;;4.25;3.47;;;;;;;12.38;92.25;92897.03;2094006;28;20107;-90
2021/06/17 02:17:44;;;;;;;5.60;4.15;;;;;;;12.37;92.02;92902.81;2088216;28;20022;-91
2021/06/17 02:18:47;;;;;;;3.88;3.50;;;;;;;12.27;91.62;92907.31;2090792;28;20016;-90
2021/06/17 02:19:49;;;;;;;5.47;3.60;;;;;;;12.31;91.67;92902.59;2089066;28;20550;-91
2021/06/17 02:20:50;;;;;;;4.25;3.60;;;;;;;12.30;92.13;92909.16;2090371;28;20466;-91
2021/06/17 02:21:53;;;;;;;5.97;4.10;;;;;;;12.31;92.32;92907.97;2097827;28;20558;-91
2021/06/17 02:22:59;;;;;;;5.20;4.30;;;;;;;12.18;91.70;92905.31;2098341;28;20088;-91
2021/06/17 02:24:02;;;;;;;4.93;3.97;;;;;;;12.26;91.99;92913.88;2099561;28;20040;-90
2021/06/17 02:25:04;;;;;;;4.07;3.75;;;;;;;12.26;92.56;92911.19;2098524;28;20091;-90
2021/06/17 02:26:06;;;;;;;4.05;3.75;;;;;;;12.28;92.01;92911.50;2090161;28;20021;-90
2021/06/17 02:27:21;;;;;;;5.40;4.60;;;;;;;12.31;91.32;92910.66;2091818;28;20076;-90
2021/06/17 02:28:24;;;;;;;4.50;3.85;;;;;;;12.29;92.12;92918.34;2085480;28;20018;-91
2021/06/17 02:29:26;;;;;;;4.30;3.90;;;;;;;12.27;91.48;92916.13;2090150;28;20027;-89
2021/06/17 02:30:32;;;;;;;13.02;4.30;;;;;;;12.21;91.64;92915.16;2093827;28;20032;-90
2021/06/17 02:31:34;;;;;;;4.40;4.00;;;;;;;12.24;91.42;92911.59;2098098;28;20024;-91
2021/06/17 02:32:40;;;;;;;6.88;4.00;;;;;;;12.18;91.51;92909.91;2081962;28;20021;-91
2021/06/17 02:33:41;;;;;;;4.25;3.75;;;;;;;12.22;91.87;92910.56;2087255;28;20445;-91
2021/06/17 02:34:44;;;;;;;7.10;4.30;;;;;;;12.17;91.70;92906.50;2081679;28;20032;-90
2021/06/17 02:35:49;;;;;;;4.20;3.55;;;;;;;12.19;91.74;92896.06;2090416;28;20664;-91
2021/06/17 02:36:51;;;;;;;4.85;4.30;;;;;;;12.10;92.28;92906.69;2091917;28;20025;-90
2021/06/17 02:37:59;;;;;;;5.68;3.90;;;;;;;12.17;91.58;92906.50;2081842;28;20017;-92
2021/06/17 02:39:03;;;;;;;5.43;4.30;;;;;;;12.21;91.90;92901.78;2093918;28;20025;-91
2021/06/17 02:40:06;;;;;;;4.80;3.83;;;;;;;12.19;91.87;92906.03;2085949;28;20461;-90
2021/06/17 02:41:09;;;;;;;4.90;4.35;;;;;;;12.10;92.07;92918.16;2089850;28;20032;-91
2021/06/17 02:42:14;;;;;;;4.05;3.63;;;;;;;12.14;92.74;92909.28;2095706;28;20078;-91
2021/06/17 02:43:19;;;;;;;5.97;4.50;;;;;;;12.22;92.02;92913.22;2096149;28;20024;-91
2021/06/17 02:44:22;;;;;;;8.05;4.47;;;;;;;12.16;91.75;92912.25;2086801;28;20021;-90
2021/06/17 02:45:26;;;;;;;4.22;3.83;;;;;;;12.13;92.03;92921.19;2097826;28;20028;-89
2021/06/17 02:46:27;;;;;;;4.95;4.45;;;;;;;12.16;92.29;92907.66;2090834;28;20025;-90
2021/06/17 02:47:29;;;;;;;6.38;4.03;;;;;;;12.13;92.45;92911.22;2073333;28;20022;-89
2021/06/17 02:48:30;;;;;;;4.68;4.22;;;;;;;12.12;92.75;92912.38;2081337;28;20076;-89
2021/06/17 02:49:30;;;;;;;7.03;4.22;;;;;;;12.07;93.11;92915.59;2073585;28;20157;-90
2021/06/17 02:50:33;;;;;;;4.65;3.90;;;;;;;12.04;93.39;92913.78;2083524;28;20044;-90
2021/06/17 02:51:35;;;;;;;5.25;3.97;;;;;;;12.08;93.44;92917.84;2082108;28;20048;-91
2021/06/17 02:52:40;;;;;;;5.43;4.00;;;;;;;12.10;92.94;92920.09;2082028;28;20057;-91
2021/06/17 02:53:40;;;;;;;5.97;4.28;;;;;;;12.13;93.02;92911.22;2082568;28;20030;-91
2021/06/17 02:54:41;;;;;;;4.88;4.38;;;;;;;12.11;93.56;92916.22;2091141;28;20025;-91
2021/06/17 02:55:42;;;;;;;5.00;4.50;;;;;;;12.11;93.12;92908.19;2097950;28;20027;-90
2021/06/17 02:56:42;;;;;;;7.18;4.85;;;;;;;12.07;93.89;92916.38;2098048;28;20021;-90
2021/06/17 02:57:43;;;;;;;6.35;4.60;;;;;;;12.07;93.53;92912.91;2099512;28;20465;-90
2021/06/17 02:59:13;;;;;;;6.18;4.28;;;;;;;12.09;93.67;92914.00;2090760;28;20029;-90
2021/06/17 03:00:18;;;;;;;4.97;4.47;;;;;;;12.10;93.30;92910.13;2098514;28;20016;-89
2021/06/17 03:01:40;;;;;;;5.07;4.57;;;;;;;12.07;93.85;92911.00;2089165;28;20056;-90
2021/06/17 03:02:59;;;;;;;7.78;5.10;;;;;;;12.00;92.96;92919.25;2088676;28;20027;-90
2021/06/17 03:04:14;;;;;;;7.95;4.95;;;;;;;11.97;93.20;92911.31;2097112;28;20027;-91
2021/06/17 03:05:18;;;;;;;9.00;4.95;;;;;;;11.97;92.63;92920.09;2086772;28;20025;-89
2021/06/17 03:06:25;;;;;;;5.22;4.53;;;;;;;12.01;92.63;92923.41;2104769;28;20127;-91
2021/06/17 03:07:33;;;;;;;6.07;4.80;;;;;;;12.00;93.35;92927.28;2091393;28;20043;-90
2021/06/17 03:08:56;;;;;;;6.57;4.32;;;;;;;11.98;93.72;92926.94;2101391;28;20025;-89
2021/06/17 03:10:03;;;;;;;5.03;4.53;;;;;;;11.95;93.34;92930.50;2102370;28;20027;-89
2021/06/17 03:11:10;;;;;;;6.45;4.82;;;;;;;12.02;93.58;92929.53;2100317;28;20561;-89
2021/06/17 03:12:13;;;;;;;9.00;4.82;;;;;;;12.02;93.82;92924.91;2117648;27;20047;-90
2021/06/17 03:13:15;;;;;;;7.30;4.38;;;;;;;12.07;93.62;92923.63;2108664;27;20098;-89
2021/06/17 03:14:21;;;;;;;7.88;4.72;;;;;;;12.08;93.23;92927.81;2108313;28;20016;-90
2021/06/17 03:15:25;;;;;;;5.72;4.95;;;;;;;12.12;93.34;92925.03;2117220;27;20023;-90
2021/06/17 03:16:34;;;;;;;7.38;5.18;;;;;;;12.06;93.42;92920.19;2124508;27;20015;-90
2021/06/17 03:17:39;;;;;;;6.07;4.65;;;;;;;12.06;94.06;92933.59;2109355;27;20048;-90
2021/06/17 03:18:43;;;;;;;5.40;4.80;;;;;;;12.05;94.13;92928.69;2108631;28;20031;-90
2021/06/17 03:19:47;;;;;;;7.45;5.43;;;;;;;12.07;93.94;92926.31;2102321;28;20021;-89
2021/06/17 03:20:49;;;;;;;6.07;4.75;;;;;;;12.01;93.13;92923.41;2092112;28;20028;-90
2021/06/17 03:21:55;;;;;;;6.60;5.28;;;;;;;11.98;93.47;92924.28;2091216;28;20091;-90
2021/06/17 03:22:56;;;;;;;6.47;4.65;;;;;;;11.96;93.34;92925.88;2100859;28;20021;-91
2021/06/17 03:23:58;;;;;;;6.15;5.20;;;;;;;11.98;94.02;92924.28;2107773;28;20480;-91
2021/06/17 03:25:07;;;;;;;7.05;5.57;;;;;;;12.02;94.18;92921.47;2104216;28;20086;-90
2021/06/17 03:26:10;;;;;;;9.07;5.35;;;;;;;12.05;94.83;92923.31;2092148;28;20489;-90
2021/06/17 03:27:11;;;;;;;7.05;5.50;;;;;;;12.03;95.30;92925.69;2091715;28;20461;-91
2021/06/17 03:28:13;;;;;;;7.32;5.10;;;;;;;12.02;95.11;92926.84;2107829;28;20565;-90
2021/06/17 03:29:16;;;;;;;6.57;4.80;;;;;;;12.03;95.09;92926.44;2099279;28;20048;-91
2021/06/17 03:30:24;;;;;;;6.50;4.65;;;;;;;12.03;94.26;92926.44;2099291;28;20032;-90
2021/06/17 03:31:28;;;;;;;6.47;5.05;;;;;;;12.07;94.50;92920.94;2097970;28;20476;-90
2021/06/17 03:32:31;;;;;;;6.38;4.57;;;;;;;12.07;94.70;92921.72;2108171;28;20499;-90
2021/06/17 03:33:37;;;;;;;8.82;5.13;;;;;;;12.07;94.48;92926.31;2108085;28;20485;-90
2021/06/17 03:34:40;;;;;;;5.55;5.15;;;;;;;12.03;94.33;92928.38;2103046;28;20191;-90
2021/06/17 03:35:41;;;;;;;7.68;5.10;;;;;;;12.00;94.90;92921.19;2094289;28;20469;-90
2021/06/17 03:36:44;;;;;;;8.85;4.53;;;;;;;11.97;94.82;92922.03;2093239;28;20028;-90
2021/06/17 03:37:49;;;;;;;6.82;4.45;;;;;;;12.00;94.02;92926.53;2091916;28;20485;-90
2021/06/17 03:38:51;;;;;;;9.52;4.80;;;;;;;12.02;94.58;92921.47;2103464;28;20019;-90
2021/06/17 03:39:55;;;;;;;12.98;5.00;;;;;;;12.02;94.13;92926.84;2099581;28;20020;-89
2021/06/17 03:40:59;;;;;;;6.72;4.95;;;;;;;12.03;94.20;92931.78;2109097;27;20024;-90
2021/06/17 03:42:01;;;;;;;5.55;4.60;;;;;;;12.02;94.13;92924.91;2099275;28;20032;-90
2021/06/17 03:43:04;;;;;;;6.90;5.00;;;;;;;12.09;93.77;92916.66;2099452;28;20024;-90
2021/06/17 03:44:09;;;;;;;5.07;4.57;;;;;;;12.05;93.60;92924.06;2106496;28;20026;-89
2021/06/17 03:45:11;;;;;;;4.95;4.55;;;;;;;12.06;93.93;92919.44;2091339;28;20116;-90
2021/06/17 03:46:14;;;;;;;8.85;4.95;;;;;;;12.05;94.43;92924.06;2099566;28;20069;-90
2021/06/17 03:47:16;;;;;;;6.40;5.10;;;;;;;12.10;93.72;92930.81;2107115;28;20054;-90
2021/06/17 03:48:18;;;;;;;6.97;4.85;;;;;;;12.07;93.35;92932.44;2102554;28;20112;-90
2021/06/17 03:49:22;;;;;;;7.57;4.82;;;;;;;12.06;93.56;92930.91;2091115;28;20072;-90
2021/06/17 03:50:24;;;;;;;5.78;4.63;;;;;;;12.10;93.18;92938.84;2091954;28;20045;-89
2021/06/17 03:51:26;;;;;;;6.65;4.70;;;;;;;12.12;93.68;92938.44;2113304;28;20019;-90
2021/06/17 03:52:27;;;;;;;5.10;4.57;;;;;;;12.18;93.71;92936.72;2101103;28;20116;-90
2021/06/17 03:53:28;;;;;;;4.85;4.30;;;;;;;12.19;93.76;92928.22;2116064;28;20601;-90
2021/06/17 03:54:30;;;;;;;6.82;4.80;;;;;;;12.17;93.79;92935.22;2115376;28;20100;-90
2021/06/17 03:55:33;;;;;;;7.50;4.45;;;;;;;12.20;93.88;92937.00;2105215;28;20020;-90
2021/06/17 03:56:34;;;;;;;6.13;4.38;;;;;;;12.20;93.95;92937.75;2095838;28;20032;-90
2021/06/17 03:57:36;;;;;;;5.05;4.30;;;;;;;12.20;93.84;92935.09;2104359;28;20024;-90
2021/06/17 03:58:37;;;;;;;6.25;4.80;;;;;;;12.27;93.75;92934.13;2095847;28;20024;-89
2021/06/17 03:59:40;;;;;;;5.43;4.00;;;;;;;12.24;93.80;92934.97;2099389;28;20044;-91
2021/06/17 04:00:42;;;;;;;7.10;4.28;;;;;;;12.28;93.61;92938.31;2099978;28;20016;-91
2021/06/17 04:01:43;;;;;;;8.38;4.63;;;;;;;12.33;93.03;92940.44;2100804;28;20499;-91
2021/06/17 04:02:46;;;;;;;7.45;5.20;;;;;;;12.35;92.92;92932.72;2099504;28;20024;-89
2021/06/17 04:03:47;;;;;;;7.15;4.75;;;;;;;12.33;93.03;92940.44;2091204;28;20029;-90
2021/06/17 04:04:48;;;;;;;6.57;4.05;;;;;;;12.37;93.11;92935.72;2091049;28;20031;-90
2021/06/17 04:05:49;;;;;;;5.65;5.15;;;;;;;12.36;92.86;92934.22;2102752;28;20048;-90
2021/06/17 04:06:55;;;;;;;4.78;4.28;;;;;;;12.43;92.44;92936.69;2090898;28;20063;-90
2021/06/17 04:07:59;;;;;;;5.10;4.32;;;;;;;12.43;92.80;92935.94;2092218;28;20025;-91
2021/06/17 04:09:00;;;;;;;5.28;4.40;;;;;;;12.48;93.04;92940.75;2091212;28;20044;-90
2021/06/17 04:10:02;;;;;;;6.68;4.38;;;;;;;12.48;92.46;92946.88;2099008;28;20036;-90
2021/06/17 04:11:07;;;;;;;7.30;4.05;;;;;;;12.50;92.62;92947.16;2091331;28;20028;-90
2021/06/17 04:12:11;;;;;;;6.35;4.78;;;;;;;12.54;92.80;92947.06;2091102;28;20028;-90
2021/06/17 04:13:13;;;;;;;7.00;4.35;;;;;;;12.56;91.97;92944.72;2091694;28;20048;-90
2021/06/17 04:14:14;;;;;;;6.30;5.22;;;;;;;12.59;92.50;92949.94;2090983;28;20052;-90
2021/06/17 04:15:16;;;;;;;5.70;4.72;;;;;;;12.65;92.60;92950.16;2099043;28;20062;-90
2021/06/17 04:16:21;;;;;;;5.10;4.60;;;;;;;12.69;92.11;92937.38;2091296;28;20031;-90
2021/06/17 04:17:26;;;;;;;6.10;4.95;;;;;;;12.68;91.62;92940.47;2092193;28;20025;-91
2021/06/17 04:18:29;;;;;;;5.47;4.95;;;;;;;12.68;90.90;92935.88;2099294;28;20503;-90
2021/06/17 04:19:33;;;;;;;5.65;4.90;;;;;;;12.70;91.65;92938.13;2095126;28;20031;-90
2021/06/17 04:20:40;;;;;;;5.30;4.80;;;;;;;12.70;91.46;92946.94;2094253;28;20024;-90
2021/06/17 04:21:42;;;;;;;5.40;4.90;;;;;;;12.72;91.29;92941.88;2100940;28;20031;-90
2021/06/17 04:22:46;;;;;;;6.18;4.70;;;;;;;12.72;91.94;92935.75;2099232;28;20579;-90
2021/06/17 04:23:53;;;;;;;5.07;4.40;;;;;;;12.74;92.20;92936.09;2100008;28;20024;-91
2021/06/17 04:25:02;;;;;;;5.35;4.90;;;;;;;12.77;92.26;92927.16;2100573;28;20024;-90
2021/06/17 04:26:03;;;;;;;5.13;4.72;;;;;;;12.82;91.83;92935.41;2101977;28;20025;-90
2021/06/17 04:27:05;;;;;;;5.25;4.60;;;;;;;12.83;91.87;92936.16;2099198;28;20508;-90
2021/06/17 04:28:07;;;;;;;5.43;4.95;;;;;;;12.85;92.50;92928.41;2090769;28;20061;-89
2021/06/17 04:29:07;;;;;;;5.68;4.43;;;;;;;12.89;92.74;92925.63;2094751;28;20020;-90
2021/06/17 04:30:10;;;;;;;5.93;5.30;;;;;;;12.93;91.55;92928.94;2098945;28;20361;-91
2021/06/17 04:31:14;;;;;;;4.82;4.43;;;;;;;12.94;91.76;92920.44;2107682;28;20032;-91
2021/06/17 04:32:15;;;;;;;4.90;4.50;;;;;;;12.97;91.37;92924.22;2099950;28;20380;-91
2021/06/17 04:33:19;;;;;;;4.85;4.32;;;;;;;13.02;91.39;92923.66;2098790;28;20052;-91
2021/06/17 04:34:21;;;;;;;9.25;4.70;;;;;;;13.05;91.15;92922.78;2098414;28;20021;-90
2021/06/17 04:35:23;;;;;;;4.93;4.53;;;;;;;13.07;91.47;92923.81;2095260;28;20028;-90
2021/06/17 04:36:24;;;;;;;5.82;4.82;;;;;;;13.11;91.65;92921.03;2090813;28;20756;-91
2021/06/17 04:37:27;;;;;;;5.53;4.72;;;;;;;13.14;91.37;92920.16;2090867;28;20020;-89
2021/06/17 04:38:32;;;;;;;6.65;4.57;;;;;;;13.17;91.03;92923.91;2099099;28;20461;-90
2021/06/17 04:39:33;;;;;;;4.65;4.25;;;;;;;13.22;91.04;92928.72;2099412;28;20024;-91
2021/06/17 04:40:35;;;;;;;6.63;4.75;;;;;;;13.20;91.49;92923.78;2092048;28;20031;-91
2021/06/17 04:41:41;;;;;;;5.03;4.35;;;;;;;13.21;91.46;92925.28;2090784;28;20112;-92
2021/06/17 04:42:42;;;;;;;5.90;4.50;;;;;;;13.24;91.72;92921.75;2099763;28;20484;-91
2021/06/17 04:43:43;;;;;;;6.63;4.80;;;;;;;13.26;91.43;92924.75;2099100;28;20028;-91
2021/06/17 04:44:45;;;;;;;6.60;4.75;;;;;;;13.30;91.37;92920.03;2109752;28;20055;-91
2021/06/17 04:45:46;;;;;;;6.10;4.82;;;;;;;13.30;91.28;92922.69;2101310;28;20361;-92
2021/06/17 04:46:47;;;;;;;10.13;5.20;;;;;;;13.34;91.09;92926.00;2090657;28;20567;-92
2021/06/17 04:47:49;;;;;;;7.70;4.68;;;;;;;13.37;90.69;92921.69;2098950;28;20025;-90
2021/06/17 04:48:52;;;;;;;7.55;5.00;;;;;;;13.40;91.03;92925.44;2090941;28;20024;-90
2021/06/17 04:49:53;;;;;;;7.15;4.78;;;;;;;13.43;91.09;92927.22;2091171;28;20025;-91
2021/06/17 04:50:55;;;;;;;7.75;4.65;;;;;;;13.48;91.37;92924.00;2094727;28;20024;-91
2021/06/17 04:51:57;;;;;;;5.85;4.88;;;;;;;13.53;90.87;92918.06;2099359;28;20016;-91
2021/06/17 04:52:58;;;;;;;7.50;4.40;;;;;;;13.57;90.87;92924.06;2099317;28;20411;-91
2021/06/17 04:53:59;;;;;;;8.13;5.40;;;;;;;13.68;89.80;92920.97;2098935;28;20036;-91
2021/06/17 04:55:00;;;;;;;5.00;4.53;;;;;;;13.68;90.31;92915.59;2098671;28;20050;-90
2021/06/17 04:56:00;;;;;;;5.95;4.25;;;;;;;13.77;89.34;92923.69;2098702;28;20035;-92
2021/06/17 04:57:01;;;;;;;4.90;4.50;;;;;;;13.85;88.76;92914.19;2090339;28;20053;-89
2021/06/17 04:58:02;;;;;;;5.72;4.60;;;;;;;13.86;89.68;92916.44;2098627;28;20020;-91
2021/06/17 04:59:03;;;;;;;6.05;4.30;;;;;;;13.91;89.23;92917.78;2090583;28;20036;-94
2021/06/17 05:00:04;;;;;;;7.40;4.22;;;;;;;13.96;89.33;92930.69;2098403;28;20025;-91